createdAt,value
2022-08-19T00:01:31.522Z,16.94
2022-08-19T00:03:59.856Z,16.77
2022-08-19T00:06:28.033Z,16.80
2022-08-19T00:08:55.052Z,16.76
2022-08-19T00:11:25.990Z,16.76
2022-08-19T00:13:53.713Z,16.79
2022-08-19T00:16:25.227Z,16.74
2022-08-19T00:18:53.170Z,16.71
2022-08-19T00:21:19.985Z,16.75
2022-08-19T00:23:47.144Z,16.73
2022-08-19T00:26:14.154Z,16.78
2022-08-19T00:28:42.224Z,16.75
2022-08-19T00:31:09.875Z,16.73
2022-08-19T00:33:37.063Z,16.78
2022-08-19T00:36:07.367Z,16.55
2022-08-19T00:38:37.813Z,16.49
2022-08-19T00:41:06.492Z,16.55
2022-08-19T00:43:33.625Z,16.51
2022-08-19T00:46:00.494Z,16.53
2022-08-19T00:48:27.602Z,16.61
2022-08-19T00:50:55.372Z,16.59
2022-08-19T00:53:24.974Z,16.60
2022-08-19T00:55:54.932Z,16.58
2022-08-19T00:58:24.442Z,16.60
2022-08-19T01:00:51.170Z,16.66
2022-08-19T01:03:20.133Z,16.60
2022-08-19T01:05:49.122Z,16.62
2022-08-19T01:08:17.470Z,16.62
2022-08-19T01:10:54.551Z,16.64
2022-08-19T01:13:25.050Z,16.65
2022-08-19T01:15:56.733Z,16.64
2022-08-19T01:18:24.523Z,16.59
2022-08-19T01:20:52.333Z,16.56
2022-08-19T01:23:19.610Z,16.61
2022-08-19T01:25:52.612Z,16.49
2022-08-19T01:28:39.056Z,16.47
2022-08-19T01:31:08.773Z,16.68
2022-08-19T01:33:35.723Z,16.71
2022-08-19T01:36:22.160Z,16.57
2022-08-19T01:38:50.493Z,16.58
2022-08-19T01:41:18.474Z,16.55
2022-08-19T01:44:10.066Z,16.54
2022-08-19T01:46:33.296Z,16.53
2022-08-19T01:49:01.054Z,16.65
2022-08-19T01:51:28.623Z,16.55
2022-08-19T01:53:55.859Z,16.47
2022-08-19T01:56:22.593Z,16.43
2022-08-19T01:58:54.212Z,16.52
2022-08-19T02:01:21.156Z,16.48
2022-08-19T02:03:48.007Z,16.50
2022-08-19T02:06:15.382Z,16.47
2022-08-19T02:08:42.242Z,16.55
2022-08-19T02:11:09.063Z,16.54
2022-08-19T02:13:36.063Z,16.51
2022-08-19T02:16:04.376Z,16.57
2022-08-19T02:18:31.363Z,16.48
2022-08-19T02:20:58.102Z,16.47
2022-08-19T02:23:25.012Z,16.47
2022-08-19T02:25:53.333Z,16.53
2022-08-19T02:28:20.082Z,16.55
2022-08-19T02:30:47.980Z,16.65
2022-08-19T02:33:14.822Z,16.52
2022-08-19T02:35:48.235Z,16.52
2022-08-19T02:38:27.700Z,16.36
2022-08-19T02:41:03.373Z,16.30
2022-08-19T02:43:33.878Z,16.25
2022-08-19T02:46:01.683Z,16.34
2022-08-19T02:48:28.742Z,16.36
2022-08-19T02:50:58.248Z,16.43
2022-08-19T02:53:27.945Z,16.48
2022-08-19T02:55:55.296Z,16.48
2022-08-19T02:58:22.770Z,16.48
2022-08-19T03:00:52.958Z,16.43
2022-08-19T03:03:20.222Z,16.43
2022-08-19T03:05:56.812Z,16.49
2022-08-19T03:08:25.390Z,16.33
2022-08-19T03:10:54.132Z,16.40
2022-08-19T03:13:21.143Z,16.35
2022-08-19T03:15:48.752Z,16.23
2022-08-19T03:18:17.909Z,16.16
2022-08-19T03:20:47.092Z,16.10
2022-08-19T03:23:14.942Z,16.18
2022-08-19T03:25:44.235Z,16.27
2022-08-19T03:28:12.994Z,16.37
2022-08-19T03:30:41.984Z,16.42
2022-08-19T03:33:17.952Z,16.46
2022-08-19T03:35:46.209Z,16.49
2022-08-19T03:38:13.012Z,16.44
2022-08-19T03:40:39.742Z,16.55
2022-08-19T03:43:07.115Z,16.41
2022-08-19T03:45:33.883Z,16.39
2022-08-19T03:48:00.705Z,16.45
2022-08-19T03:50:27.532Z,16.55
2022-08-19T03:52:54.438Z,16.54
2022-08-19T03:55:21.392Z,16.55
2022-08-19T03:57:49.684Z,16.47
2022-08-19T04:00:16.983Z,16.57
2022-08-19T04:02:56.550Z,16.59
2022-08-19T04:05:29.495Z,16.56
2022-08-19T04:08:00.326Z,16.57
2022-08-19T04:10:29.216Z,16.50
2022-08-19T04:12:56.070Z,16.41
2022-08-19T04:15:22.827Z,16.44
2022-08-19T04:17:49.602Z,16.37
2022-08-19T04:20:16.505Z,16.37
2022-08-19T04:22:43.222Z,16.32
2022-08-19T04:25:10.612Z,16.35
2022-08-19T04:27:37.320Z,16.49
2022-08-19T04:30:04.932Z,16.54
2022-08-19T04:32:33.032Z,16.36
2022-08-19T04:35:02.211Z,16.35
2022-08-19T04:37:43.293Z,16.39
2022-08-19T04:40:29.501Z,16.43
2022-08-19T04:42:57.412Z,16.32
2022-08-19T04:45:24.312Z,16.38
2022-08-19T04:47:57.790Z,16.36
2022-08-19T04:50:27.061Z,16.38
2022-08-19T04:52:54.433Z,16.38
2022-08-19T04:55:21.512Z,16.38
2022-08-19T04:57:48.594Z,16.38
2022-08-19T05:00:15.853Z,16.36
2022-08-19T05:02:43.422Z,16.47
2022-08-19T05:05:10.510Z,16.47
2022-08-19T05:07:37.655Z,16.47
2022-08-19T05:10:06.222Z,16.45
2022-08-19T05:12:32.995Z,16.55
2022-08-19T05:15:00.163Z,16.66
2022-08-19T05:17:29.668Z,16.71
2022-08-19T05:20:17.890Z,16.80
2022-08-19T05:22:46.316Z,16.84
2022-08-19T05:25:20.183Z,16.91
2022-08-19T05:27:47.502Z,16.74
2022-08-19T05:30:14.633Z,16.74
2022-08-19T05:32:43.069Z,16.85
2022-08-19T05:35:10.692Z,16.95
2022-08-19T05:37:38.062Z,16.96
2022-08-19T05:40:05.437Z,16.85
2022-08-19T05:42:32.394Z,16.87
2022-08-19T05:44:59.273Z,16.89
2022-08-19T05:47:26.057Z,16.92
2022-08-19T05:49:52.924Z,16.98
2022-08-19T05:52:26.101Z,16.97
2022-08-19T05:54:56.179Z,16.98
2022-08-19T05:57:24.678Z,17.14
2022-08-19T05:59:53.159Z,17.27
2022-08-19T06:02:26.574Z,17.38
2022-08-19T06:04:53.481Z,17.21
2022-08-19T06:07:20.598Z,17.20
2022-08-19T06:09:58.843Z,17.33
2022-08-19T06:12:31.718Z,17.26
2022-08-19T06:15:01.366Z,17.31
2022-08-19T06:17:31.725Z,17.41
2022-08-19T06:19:59.816Z,17.46
2022-08-19T06:22:27.257Z,17.46
2022-08-19T06:24:55.132Z,17.38
2022-08-19T06:27:22.542Z,17.32
2022-08-19T06:29:49.703Z,17.37
2022-08-19T06:32:18.892Z,17.41
2022-08-19T06:34:45.839Z,17.43
2022-08-19T06:37:13.265Z,17.41
2022-08-19T06:39:44.747Z,17.47
2022-08-19T06:42:17.737Z,17.44
2022-08-19T06:44:49.010Z,17.49
2022-08-19T06:47:23.542Z,17.53
2022-08-19T06:50:01.330Z,17.53
2022-08-19T06:52:36.408Z,17.57
2022-08-19T06:55:05.896Z,17.58
2022-08-19T06:57:34.157Z,17.58
2022-08-19T07:00:01.307Z,17.48
2022-08-19T07:02:28.187Z,17.54
2022-08-19T07:04:56.954Z,17.50
2022-08-19T07:07:24.290Z,17.55
2022-08-19T07:10:00.264Z,17.72
2022-08-19T07:12:33.779Z,17.68
2022-08-19T07:15:02.537Z,17.68
2022-08-19T07:17:30.309Z,17.72
2022-08-19T07:19:57.895Z,17.71
2022-08-19T07:22:33.787Z,17.73
2022-08-19T07:25:01.011Z,17.93
2022-08-19T07:27:27.756Z,18.12
2022-08-19T07:29:55.890Z,18.42
2022-08-19T07:32:24.121Z,18.57
2022-08-19T07:34:51.000Z,18.62
2022-08-19T07:37:18.178Z,18.56
2022-08-19T07:39:45.146Z,18.69
2022-08-19T07:42:13.477Z,19.09
2022-08-19T07:47:49.048Z,19.57
2022-08-19T07:50:01.056Z,19.32
2022-08-19T07:52:27.926Z,19.73
2022-08-19T07:54:54.736Z,20.81
2022-08-19T07:57:21.999Z,21.47
2022-08-19T07:59:48.908Z,21.64
2022-08-19T08:02:15.738Z,21.62
2022-08-19T08:05:00.979Z,21.04
2022-08-19T08:07:46.691Z,20.70
2022-08-19T08:10:20.945Z,20.26
2022-08-19T08:13:01.808Z,20.09
2022-08-19T08:15:38.694Z,20.02
2022-08-19T08:18:08.820Z,19.88
2022-08-19T08:20:36.301Z,19.81
2022-08-19T08:23:22.051Z,20.20
2022-08-19T08:25:50.089Z,20.66
2022-08-19T08:28:18.038Z,21.25
2022-08-19T08:30:47.439Z,21.33
2022-08-19T08:35:49.142Z,21.18
2022-08-19T08:38:17.685Z,21.02
2022-08-19T08:40:51.302Z,20.68
2022-08-19T08:43:45.641Z,20.82
2022-08-19T08:46:31.622Z,21.19
2022-08-19T08:49:06.718Z,22.26
2022-08-19T08:51:39.310Z,22.39
2022-08-19T08:54:12.102Z,22.35
2022-08-19T08:56:40.284Z,22.23
2022-08-19T08:59:15.870Z,21.97
2022-08-19T09:01:42.652Z,22.06
2022-08-19T09:04:09.743Z,22.77
2022-08-19T09:06:42.092Z,22.75
2022-08-19T09:09:20.824Z,22.76
2022-08-19T09:12:15.193Z,22.84
2022-08-19T09:15:02.241Z,22.74
2022-08-19T09:17:36.315Z,22.95
2022-08-19T09:20:17.521Z,22.93
2022-08-19T09:22:47.593Z,22.82
2022-08-19T09:25:24.716Z,22.45
2022-08-19T09:27:55.320Z,22.04
2022-08-19T09:30:35.811Z,21.99
2022-08-19T09:33:02.667Z,22.10
2022-08-19T09:35:30.655Z,22.13
2022-08-19T09:37:59.790Z,21.89
2022-08-19T09:40:30.288Z,22.01
2022-08-19T09:42:58.829Z,22.10
2022-08-19T09:45:25.720Z,22.44
2022-08-19T09:47:54.798Z,22.68
2022-08-19T09:50:23.684Z,23.00
2022-08-19T09:52:55.040Z,22.78
2022-08-19T09:55:31.268Z,22.89
2022-08-19T09:57:59.904Z,22.92
2022-08-19T10:00:27.849Z,23.14
2022-08-19T10:02:54.705Z,23.34
2022-08-19T10:05:42.176Z,23.02
2022-08-19T10:08:13.826Z,23.24
2022-08-19T10:10:46.276Z,23.70
2022-08-19T10:13:15.477Z,23.55
2022-08-19T10:15:47.619Z,23.87
2022-08-19T10:18:19.300Z,23.99
2022-08-19T10:20:51.666Z,24.14
2022-08-19T10:23:21.072Z,24.31
2022-08-19T10:25:49.025Z,24.31
2022-08-19T10:28:16.269Z,24.23
2022-08-19T10:30:47.658Z,24.50
2022-08-19T10:33:38.228Z,24.07
2022-08-19T10:36:19.251Z,23.74
2022-08-19T10:38:52.327Z,23.90
2022-08-19T10:41:25.766Z,24.67
2022-08-19T10:43:57.638Z,25.18
2022-08-19T10:46:34.293Z,24.59
2022-08-19T10:49:02.781Z,24.62
2022-08-19T10:51:48.816Z,24.97
2022-08-19T10:54:17.139Z,24.90
2022-08-19T10:56:57.974Z,24.83
2022-08-19T10:59:33.841Z,25.11
2022-08-19T11:02:06.354Z,24.49
2022-08-19T11:04:34.349Z,24.82
2022-08-19T11:07:03.313Z,24.59
2022-08-19T11:09:33.880Z,24.83
2022-08-19T11:12:02.808Z,24.65
2022-08-19T11:14:32.099Z,24.50
2022-08-19T11:17:01.850Z,23.99
2022-08-19T11:19:28.759Z,23.89
2022-08-19T11:21:57.622Z,24.12
2022-08-19T11:24:28.540Z,24.15
2022-08-19T11:27:01.036Z,24.18
2022-08-19T11:29:29.070Z,23.90
2022-08-19T11:31:56.323Z,23.85
2022-08-19T11:34:26.526Z,23.76
2022-08-19T11:36:58.053Z,23.69
2022-08-19T11:39:25.260Z,23.75
2022-08-19T11:41:52.291Z,23.55
2022-08-19T11:44:19.483Z,23.84
2022-08-19T11:46:47.495Z,23.91
2022-08-19T11:49:19.932Z,24.08
2022-08-19T11:51:47.419Z,24.02
2022-08-19T11:54:15.732Z,24.05
2022-08-19T11:56:42.989Z,24.18
2022-08-19T11:59:14.646Z,23.93
2022-08-19T12:01:43.744Z,23.77
2022-08-19T12:04:11.683Z,23.73
2022-08-19T12:06:40.733Z,23.89
2022-08-19T12:09:10.501Z,24.05
2022-08-19T12:11:38.906Z,24.13
2022-08-19T12:14:06.183Z,24.15
2022-08-19T12:16:33.817Z,24.12
2022-08-19T12:19:05.081Z,24.35
2022-08-19T12:21:34.171Z,24.75
2022-08-19T12:24:02.322Z,24.77
2022-08-19T12:26:30.514Z,25.00
2022-08-19T12:28:57.233Z,24.42
2022-08-19T12:31:24.071Z,24.47
2022-08-19T12:33:50.905Z,24.60
2022-08-19T12:36:18.738Z,24.90
2022-08-19T12:38:45.763Z,24.94
2022-08-19T12:41:15.073Z,25.10
2022-08-19T12:43:42.974Z,24.67
2022-08-19T12:46:11.446Z,24.74
2022-08-19T12:48:40.351Z,24.35
2022-08-19T12:51:10.400Z,24.33
2022-08-19T12:53:39.147Z,24.35
2022-08-19T12:56:08.130Z,24.23
2022-08-19T12:58:39.995Z,24.05
2022-08-19T13:01:15.812Z,24.10
2022-08-19T13:03:46.644Z,23.98
2022-08-19T13:06:13.935Z,23.82
2022-08-19T13:08:46.532Z,23.80
2022-08-19T13:11:15.953Z,23.89
2022-08-19T13:13:44.942Z,23.99
2022-08-19T13:16:13.114Z,23.92
2022-08-19T13:18:41.337Z,23.95
2022-08-19T13:21:10.311Z,24.17
2022-08-19T13:23:37.433Z,24.07
2022-08-19T13:26:07.015Z,23.96
2022-08-19T13:28:53.954Z,23.91
2022-08-19T13:31:41.563Z,24.07
2022-08-19T13:34:09.242Z,23.56
2022-08-19T13:36:37.334Z,23.11
2022-08-19T13:39:05.466Z,23.00
2022-08-19T13:41:32.382Z,22.43
2022-08-19T13:43:59.155Z,22.33
2022-08-19T13:46:26.019Z,22.25
2022-08-19T13:48:52.795Z,22.19
2022-08-19T13:51:19.874Z,22.07
2022-08-19T13:53:48.156Z,21.43
2022-08-19T13:56:18.988Z,20.86
2022-08-19T13:58:47.784Z,20.49
2022-08-19T14:01:21.010Z,20.06
2022-08-19T14:03:51.715Z,19.58
2022-08-19T14:06:18.710Z,19.70
2022-08-19T14:08:46.514Z,19.41
2022-08-19T14:11:13.504Z,19.45
2022-08-19T14:13:40.374Z,19.44
2022-08-19T14:16:11.294Z,19.39
2022-08-19T14:18:38.574Z,19.12
2022-08-19T14:21:06.233Z,19.07
2022-08-19T14:23:34.244Z,19.12
2022-08-19T14:26:14.526Z,19.33
2022-08-19T14:28:44.693Z,19.03
2022-08-19T14:31:13.372Z,18.68
2022-08-19T14:33:41.603Z,18.73
2022-08-19T14:36:08.571Z,18.75
2022-08-19T14:38:35.957Z,18.78
2022-08-19T14:41:20.456Z,18.71
2022-08-19T14:43:49.582Z,18.75
2022-08-19T14:46:18.232Z,18.66
2022-08-19T14:48:48.034Z,18.82
2022-08-19T14:51:20.169Z,18.70
2022-08-19T14:53:49.763Z,18.79
2022-08-19T14:56:20.510Z,18.68
2022-08-19T14:58:47.366Z,18.62
2022-08-19T15:01:14.689Z,18.71
2022-08-19T15:03:42.843Z,18.70
2022-08-19T15:06:12.682Z,18.76
2022-08-19T15:08:42.081Z,18.77
2022-08-19T15:11:10.961Z,18.69
2022-08-19T15:13:38.214Z,18.57
2022-08-19T15:16:05.366Z,18.64
2022-08-19T15:18:32.153Z,18.57
2022-08-19T15:20:58.933Z,19.11
2022-08-19T15:23:26.526Z,19.06
2022-08-19T15:25:56.495Z,19.14
2022-08-19T15:28:24.383Z,19.11
2022-08-19T15:30:51.233Z,19.02
2022-08-19T15:33:18.713Z,19.13
2022-08-19T15:35:45.544Z,18.94
2022-08-19T15:38:14.088Z,18.98
2022-08-19T15:40:42.393Z,18.96
2022-08-19T15:43:09.118Z,18.99
2022-08-19T15:45:36.045Z,18.87
2022-08-19T15:48:04.445Z,18.86
2022-08-19T15:50:35.965Z,18.84
2022-08-19T15:53:06.753Z,18.75
2022-08-19T15:55:35.884Z,18.66
2022-08-19T15:58:28.277Z,18.77
2022-08-19T16:01:16.077Z,18.89
2022-08-19T16:04:01.605Z,18.84
2022-08-19T16:06:28.674Z,18.79
2022-08-19T16:08:57.592Z,18.81
2022-08-19T16:11:29.482Z,18.77
2022-08-19T16:13:58.009Z,18.74
2022-08-19T16:16:34.073Z,18.72
2022-08-19T16:19:06.306Z,18.80
2022-08-19T16:21:39.697Z,18.82
2022-08-19T16:24:10.365Z,18.78
2022-08-19T16:26:37.275Z,18.67
2022-08-19T16:29:09.034Z,18.68
2022-08-19T16:31:39.012Z,18.68
2022-08-19T16:34:06.514Z,18.68
2022-08-19T16:36:33.570Z,18.63
2022-08-19T16:39:01.034Z,18.62
2022-08-19T16:41:29.244Z,18.54
2022-08-19T16:43:56.214Z,18.54
2022-08-19T16:46:23.656Z,18.39
2022-08-19T16:48:54.145Z,18.49
2022-08-19T16:51:22.931Z,18.46
2022-08-19T16:53:52.615Z,18.48
2022-08-19T16:56:20.517Z,18.40
2022-08-19T16:58:48.373Z,18.42
2022-08-19T17:01:15.175Z,18.46
2022-08-19T17:03:42.173Z,18.40
2022-08-19T17:06:21.010Z,18.38
2022-08-19T17:08:52.363Z,18.32
2022-08-19T17:11:20.254Z,18.36
2022-08-19T17:13:47.908Z,18.20
2022-08-19T17:16:15.880Z,18.21
2022-08-19T17:18:42.716Z,18.27
2022-08-19T17:21:09.716Z,18.17
2022-08-19T17:23:42.186Z,18.25
2022-08-19T17:26:17.171Z,18.10
2022-08-19T17:28:48.100Z,18.05
2022-08-19T17:31:15.283Z,18.08
2022-08-19T17:33:42.005Z,18.11
2022-08-19T17:36:09.012Z,18.07
2022-08-19T17:38:36.014Z,18.00
2022-08-19T17:41:05.783Z,17.91
2022-08-19T17:43:37.056Z,17.97
2022-08-19T17:46:05.785Z,17.94
2022-08-19T17:48:40.933Z,17.92
2022-08-19T17:51:22.461Z,17.83
2022-08-19T17:53:51.064Z,17.62
2022-08-19T17:56:18.707Z,17.69
2022-08-19T17:58:51.999Z,17.78
2022-08-19T18:01:34.150Z,17.83
2022-08-19T18:04:17.371Z,17.71
2022-08-19T18:06:46.606Z,17.72
2022-08-19T18:09:24.897Z,17.71
2022-08-19T18:11:53.666Z,17.63
2022-08-19T18:14:32.968Z,17.55
2022-08-19T18:17:12.884Z,17.52
2022-08-19T18:19:43.356Z,17.39
2022-08-19T18:22:13.054Z,17.42
2022-08-19T18:24:42.125Z,17.53
2022-08-19T18:27:10.054Z,17.34
2022-08-19T18:29:38.506Z,17.26
2022-08-19T18:32:06.915Z,17.26
2022-08-19T18:34:36.607Z,17.27
2022-08-19T18:37:03.374Z,17.21
2022-08-19T18:39:48.757Z,17.16
2022-08-19T18:42:34.904Z,17.16
2022-08-19T18:45:20.410Z,17.16
2022-08-19T18:48:05.665Z,17.08
2022-08-19T18:50:33.514Z,17.03
2022-08-19T18:53:00.305Z,17.03
2022-08-19T18:55:28.427Z,17.01
2022-08-19T18:57:55.513Z,16.98
2022-08-19T19:00:22.374Z,16.98
2022-08-19T19:02:50.186Z,16.97
2022-08-19T19:05:16.934Z,16.79
2022-08-19T19:07:44.018Z,16.74
2022-08-19T19:10:10.887Z,16.78
2022-08-19T19:12:41.659Z,16.74
2022-08-19T19:15:08.953Z,16.75
2022-08-19T19:17:35.643Z,16.74
2022-08-19T19:20:03.215Z,16.78
2022-08-19T19:22:30.116Z,16.76
2022-08-19T19:24:59.144Z,16.78
2022-08-19T19:27:26.314Z,16.69
2022-08-19T19:29:53.254Z,16.70
2022-08-19T19:32:27.004Z,16.57
2022-08-19T19:34:54.274Z,16.55
2022-08-19T19:37:21.167Z,16.52
2022-08-19T19:39:48.303Z,16.55
2022-08-19T19:42:21.309Z,16.48
2022-08-19T19:44:50.567Z,16.39
2022-08-19T19:47:19.067Z,16.32
2022-08-19T19:50:10.719Z,16.35
2022-08-19T19:52:33.562Z,16.40
2022-08-19T19:55:01.449Z,16.37
2022-08-19T19:57:30.387Z,16.38
2022-08-19T19:59:57.103Z,16.40
2022-08-19T20:02:25.354Z,16.42
2022-08-19T20:04:54.046Z,16.37
2022-08-19T20:07:40.673Z,16.41
2022-08-19T20:10:07.578Z,16.27
2022-08-19T20:12:34.853Z,16.39
2022-08-19T20:15:01.543Z,16.40
2022-08-19T20:17:28.154Z,16.42
2022-08-19T20:19:57.587Z,16.46
2022-08-19T20:22:25.708Z,16.51
2022-08-19T20:24:53.861Z,16.49
2022-08-19T20:27:23.571Z,16.39
2022-08-19T20:29:52.547Z,16.32
2022-08-19T20:32:19.177Z,16.35
2022-08-19T20:34:49.124Z,16.33
2022-08-19T20:37:15.887Z,16.22
2022-08-19T20:39:42.648Z,16.23
2022-08-19T20:42:09.324Z,16.13
2022-08-19T20:44:36.191Z,16.07
2022-08-19T20:47:04.110Z,16.00
2022-08-19T20:49:31.514Z,16.14
2022-08-19T20:51:58.577Z,16.09
2022-08-19T20:54:26.192Z,16.11
2022-08-19T20:56:53.281Z,16.07
2022-08-19T20:59:20.965Z,15.95
2022-08-19T21:01:48.436Z,15.87
2022-08-19T21:04:15.081Z,15.84
2022-08-19T21:06:45.382Z,15.89
2022-08-19T21:09:13.615Z,15.84
2022-08-19T21:11:40.344Z,15.85
2022-08-19T21:14:07.015Z,15.85
2022-08-19T21:16:33.967Z,15.88
2022-08-19T21:19:01.194Z,15.85
2022-08-19T21:21:28.529Z,15.91
2022-08-19T21:23:55.194Z,15.92
2022-08-19T21:26:21.905Z,15.90
2022-08-19T21:28:48.544Z,15.74
2022-08-19T21:31:17.895Z,15.76
2022-08-19T21:33:45.065Z,15.76
2022-08-19T21:36:11.782Z,15.65
2022-08-19T21:38:38.613Z,15.55
2022-08-19T21:41:06.491Z,15.57
2022-08-19T21:43:34.901Z,15.75
2022-08-19T21:46:01.889Z,15.77
2022-08-19T21:48:28.608Z,15.57
2022-08-19T21:50:55.250Z,15.45
2022-08-19T21:53:22.772Z,15.64
2022-08-19T21:55:53.456Z,15.52
2022-08-19T21:58:28.323Z,15.49
2022-08-19T22:01:01.772Z,15.54
2022-08-19T22:03:28.923Z,15.65
2022-08-19T22:05:55.662Z,15.76
2022-08-19T22:08:22.265Z,15.81
2022-08-19T22:10:49.853Z,15.83
2022-08-19T22:13:18.291Z,15.81
2022-08-19T22:15:46.294Z,15.79
2022-08-19T22:18:13.780Z,15.77
2022-08-19T22:20:40.715Z,15.73
2022-08-19T22:23:07.936Z,15.66
2022-08-19T22:25:40.844Z,15.54
2022-08-19T22:28:10.888Z,15.68
2022-08-19T22:30:38.965Z,15.66
2022-08-19T22:33:12.561Z,15.66
2022-08-19T22:35:41.515Z,15.66
2022-08-19T22:38:10.275Z,15.67
2022-08-19T22:40:39.722Z,15.60
2022-08-19T22:43:30.072Z,15.64
2022-08-19T22:45:58.156Z,15.56
2022-08-19T22:48:28.097Z,15.50
2022-08-19T22:51:14.286Z,15.43
2022-08-19T22:53:45.035Z,15.46
2022-08-19T22:56:15.311Z,15.43
2022-08-19T22:58:43.425Z,15.45
2022-08-19T23:01:23.114Z,15.47
2022-08-19T23:03:56.396Z,15.44
2022-08-19T23:06:23.311Z,15.36
2022-08-19T23:09:01.143Z,15.41
2022-08-19T23:11:27.944Z,15.21
2022-08-19T23:13:54.730Z,15.10
2022-08-19T23:16:21.534Z,15.11
2022-08-19T23:18:48.375Z,15.09
2022-08-19T23:21:15.094Z,15.16
2022-08-19T23:23:41.843Z,15.12
2022-08-19T23:26:10.421Z,15.07
2022-08-19T23:28:57.424Z,15.03
2022-08-19T23:31:26.267Z,15.03
2022-08-19T23:33:53.557Z,15.08
2022-08-19T23:36:20.651Z,14.92
2022-08-19T23:38:49.034Z,14.97
2022-08-19T23:41:18.001Z,15.02
2022-08-19T23:43:45.098Z,15.09
2022-08-19T23:46:14.159Z,15.16
2022-08-19T23:48:55.681Z,15.22
2022-08-19T23:51:22.513Z,15.29
2022-08-19T23:53:49.372Z,15.37
2022-08-19T23:56:16.144Z,15.35
2022-08-19T23:58:42.926Z,15.28
